Time;durP1;ratioP1;P1;durP2;ratioP2;P2;SDS_P1;SDS_P2;PMS_P1;PMS_P2;Temp;Humidity;BMP_temperature;BMP_pressure;BME280_temperature;BME280_humidity;BME280_pressure;Samples;Min_cycle;Max_cycle;Signal;HPM_P1;HPM_P2
2022/06/02 00:00:16;;;;;;;;;;;20.80;48.20;;;;;;5073986;28;19909;-63
2022/06/02 00:02:49;;;;;;;;;;;20.90;48.20;;;;;;5073646;28;19908;-64
2022/06/02 00:05:20;;;;;;;;;;;20.80;48.20;;;;;;5072439;28;19909;-64
2022/06/02 00:07:57;;;;;;;;;;;20.90;48.20;;;;;;5072638;28;19912;-64
2022/06/02 00:10:41;;;;;;;;;;;20.80;48.10;;;;;;5072400;28;19909;-63
2022/06/02 00:13:20;;;;;;;;;;;20.80;48.10;;;;;;5073672;28;19915;-64
2022/06/02 00:15:52;;;;;;;;;;;20.80;48.10;;;;;;5072079;28;19919;-64
2022/06/02 00:18:37;;;;;;;;;;;20.90;48.20;;;;;;5073543;28;19922;-64
2022/06/02 00:21:12;;;;;;;;;;;20.90;48.10;;;;;;5073477;28;19916;-63
2022/06/02 00:23:40;;;;;;;;;;;20.90;48.10;;;;;;5073420;28;19909;-63
2022/06/02 00:26:20;;;;;;;;;;;20.90;48.10;;;;;;5072241;28;19916;-63
2022/06/02 00:28:46;;;;;;;;;;;20.90;48.10;;;;;;5073309;28;19959;-63
2022/06/02 00:31:20;;;;;;;;;;;20.90;48.10;;;;;;5072113;28;19947;-63
2022/06/02 00:34:00;;;;;;;;;;;20.90;48.10;;;;;;5073324;28;19919;-64
2022/06/02 00:36:36;;;;;;;;;;;20.80;48.00;;;;;;5073303;28;20007;-64
2022/06/02 00:39:03;;;;;;;;;;;20.80;48.00;;;;;;5072333;28;19908;-64
2022/06/02 00:41:33;;;;;;;;;;;20.80;48.00;;;;;;5073171;28;20383;-64
2022/06/02 00:44:06;;;;;;;;;;;20.80;48.00;;;;;;5073150;28;19908;-64
2022/06/02 00:46:41;;;;;;;;;;;20.80;48.00;;;;;;5073058;28;19957;-63
2022/06/02 00:49:13;;;;;;;;;;;20.80;48.00;;;;;;5073173;28;19940;-63
2022/06/02 00:51:41;;;;;;;;;;;20.80;47.90;;;;;;5073358;28;20016;-63
2022/06/02 00:57:32;;;;;;;;;;;20.80;48.00;;;;;;5079849;28;20353;-63
2022/06/02 01:00:04;;;;;;;;;;;20.80;48.00;;;;;;5072151;28;20434;-63
2022/06/02 01:02:30;;;;;;;;;;;20.80;48.00;;;;;;5072950;28;19916;-63
2022/06/02 01:05:00;;;;;;;;;;;20.80;48.00;;;;;;5075722;28;19947;-63
2022/06/02 01:07:26;;;;;;;;;;;20.80;48.00;;;;;;5077084;28;19995;-63
2022/06/02 01:10:10;;;;;;;;;;;20.80;48.00;;;;;;5077382;28;19970;-64
2022/06/02 01:12:35;;;;;;;;;;;20.80;48.00;;;;;;5076942;28;19909;-64
2022/06/02 01:15:06;;;;;;;;;;;20.80;48.00;;;;;;5076946;28;19949;-64
2022/06/02 01:17:37;;;;;;;;;;;20.80;47.90;;;;;;5075605;28;19928;-64
2022/06/02 01:20:12;;;;;;;;;;;20.80;48.00;;;;;;5076843;28;19916;-64
2022/06/02 01:22:55;;;;;;;;;;;20.80;48.00;;;;;;5076729;28;19959;-64
2022/06/02 01:25:40;;;;;;;;;;;20.80;48.00;;;;;;5076814;28;19913;-64
2022/06/02 01:28:05;;;;;;;;;;;20.80;48.00;;;;;;5076921;28;19912;-63
2022/06/02 01:30:37;;;;;;;;;;;20.70;48.00;;;;;;5076693;28;19978;-63
2022/06/02 01:33:11;;;;;;;;;;;20.80;48.00;;;;;;5076693;28;19931;-63
2022/06/02 01:35:41;;;;;;;;;;;20.80;48.00;;;;;;5075290;28;19915;-63
2022/06/02 01:38:13;;;;;;;;;;;20.80;48.00;;;;;;5076814;28;20324;-63
2022/06/02 01:40:39;;;;;;;;;;;20.80;48.00;;;;;;5076702;28;19909;-63
2022/06/02 01:43:15;;;;;;;;;;;20.80;47.90;;;;;;5076465;28;19962;-63
2022/06/02 01:45:44;;;;;;;;;;;20.80;47.90;;;;;;5076336;28;20516;-63
2022/06/02 01:48:15;;;;;;;;;;;20.80;48.00;;;;;;5076367;28;19920;-63
2022/06/02 01:50:59;;;;;;;;;;;20.70;47.90;;;;;;5081882;28;19958;-63
2022/06/02 01:53:31;;;;;;;;;;;20.70;48.00;;;;;;5076187;28;19916;-63
2022/06/02 01:56:09;;;;;;;;;;;20.70;48.00;;;;;;5075036;28;20379;-63
2022/06/02 01:58:53;;;;;;;;;;;20.70;47.90;;;;;;5076100;28;20314;-63
2022/06/02 02:01:41;;;;;;;;;;;20.70;47.90;;;;;;5076167;28;20479;-63
2022/06/02 02:04:10;;;;;;;;;;;20.70;47.90;;;;;;5075121;28;19917;-63
2022/06/02 02:06:55;;;;;;;;;;;20.70;48.00;;;;;;5075979;28;20428;-63
2022/06/02 02:09:27;;;;;;;;;;;20.70;48.00;;;;;;5075125;28;19908;-63
2022/06/02 02:11:53;;;;;;;;;;;20.70;48.00;;;;;;5074668;28;19912;-63
2022/06/02 02:14:37;;;;;;;;;;;20.70;48.00;;;;;;5075243;28;19933;-64
2022/06/02 02:17:11;;;;;;;;;;;20.70;48.00;;;;;;5075646;28;19923;-63
2022/06/02 02:19:44;;;;;;;;;;;20.70;48.00;;;;;;5075759;28;19916;-63
2022/06/02 02:22:12;;;;;;;;;;;20.60;48.60;;;;;;5075657;28;20361;-63
2022/06/02 02:24:41;;;;;;;;;;;20.60;48.00;;;;;;5074410;28;19915;-63
2022/06/02 02:27:11;;;;;;;;;;;20.60;48.00;;;;;;5075564;28;20003;-63
2022/06/02 02:29:42;;;;;;;;;;;20.60;48.00;;;;;;5074321;28;19999;-63
2022/06/02 02:32:14;;;;;;;;;;;20.60;48.00;;;;;;5075544;28;19909;-64
2022/06/02 02:34:45;;;;;;;;;;;20.60;47.90;;;;;;5074499;28;20332;-64
2022/06/02 02:37:15;;;;;;;;;;;20.60;48.00;;;;;;5075592;28;19908;-64
2022/06/02 02:39:43;;;;;;;;;;;20.60;48.00;;;;;;5075681;28;20368;-63
2022/06/02 02:42:14;;;;;;;;;;;20.60;48.00;;;;;;5075340;28;19908;-63
2022/06/02 02:44:58;;;;;;;;;;;20.60;48.00;;;;;;5074081;28;19912;-63
2022/06/02 02:47:50;;;;;;;;;;;20.60;48.00;;;;;;5075180;28;20398;-63
2022/06/02 02:50:33;;;;;;;;;;;20.60;48.10;;;;;;5071270;28;20003;-64
2022/06/02 02:53:17;;;;;;;;;;;20.60;48.00;;;;;;5075425;28;19909;-64
2022/06/02 02:55:55;;;;;;;;;;;20.50;48.00;;;;;;5074992;28;19936;-64
2022/06/02 02:58:29;;;;;;;;;;;20.50;48.00;;;;;;5075108;28;19915;-64
2022/06/02 03:00:59;;;;;;;;;;;20.50;48.00;;;;;;5074898;28;20015;-63
2022/06/02 03:03:39;;;;;;;;;;;20.50;48.00;;;;;;5074876;28;19970;-63
2022/06/02 03:06:20;;;;;;;;;;;20.50;48.00;;;;;;5073872;28;20308;-63
2022/06/02 03:09:03;;;;;;;;;;;20.50;48.00;;;;;;5075140;28;20430;-63
2022/06/02 03:11:48;;;;;;;;;;;20.50;48.00;;;;;;5074626;28;19909;-63
2022/06/02 03:14:18;;;;;;;;;;;20.50;48.00;;;;;;5073406;28;19912;-63
2022/06/02 03:16:44;;;;;;;;;;;20.50;48.00;;;;;;5073385;28;19923;-63
2022/06/02 03:19:09;;;;;;;;;;;20.50;48.00;;;;;;5073450;28;20372;-63
2022/06/02 03:21:53;;;;;;;;;;;20.40;47.90;;;;;;5074448;28;19909;-62
2022/06/02 03:24:29;;;;;;;;;;;20.50;48.00;;;;;;5074342;28;19909;-63
2022/06/02 03:27:07;;;;;;;;;;;20.50;47.80;;;;;;5074476;28;20356;-63
2022/06/02 03:29:33;;;;;;;;;;;20.50;47.90;;;;;;5074350;28;19984;-64
2022/06/02 03:32:17;;;;;;;;;;;20.40;47.90;;;;;;5074318;28;20350;-63
2022/06/02 03:34:50;;;;;;;;;;;20.40;47.90;;;;;;5074120;28;19999;-63
2022/06/02 03:37:24;;;;;;;;;;;20.40;47.90;;;;;;5072981;28;20384;-63
2022/06/02 03:39:49;;;;;;;;;;;20.40;47.90;;;;;;5072984;28;19934;-63
2022/06/02 03:42:17;;;;;;;;;;;20.40;47.90;;;;;;5073842;28;20003;-63
2022/06/02 03:44:46;;;;;;;;;;;20.40;47.90;;;;;;5072602;28;19995;-63
2022/06/02 03:47:22;;;;;;;;;;;20.40;48.00;;;;;;5073928;28;19919;-63
2022/06/02 03:50:06;;;;;;;;;;;20.40;47.90;;;;;;5072765;28;20031;-64
2022/06/02 03:52:39;;;;;;;;;;;20.40;47.90;;;;;;5073644;28;20269;-64
2022/06/02 03:55:08;;;;;;;;;;;20.40;47.90;;;;;;5072391;28;19995;-63
2022/06/02 03:58:14;;;;;;;;;;;20.40;47.90;;;;;;5072512;28;20279;-63
2022/06/02 04:00:44;;;;;;;;;;;20.40;48.00;;;;;;4992367;28;19914;-63
2022/06/02 04:03:09;;;;;;;;;;;20.40;48.00;;;;;;4992063;28;19917;-63
2022/06/02 04:05:34;;;;;;;;;;;20.40;47.90;;;;;;5032985;28;19908;-63
2022/06/02 04:08:24;;;;;;;;;;;20.40;47.90;;;;;;5073690;28;19912;-63
2022/06/02 04:11:04;;;;;;;;;;;20.40;47.90;;;;;;5073428;28;19912;-63
2022/06/02 04:13:38;;;;;;;;;;;20.40;47.80;;;;;;5073445;28;20113;-63
2022/06/02 04:16:12;;;;;;;;;;;20.40;47.80;;;;;;5073197;28;19912;-63
2022/06/02 04:18:56;;;;;;;;;;;20.40;47.80;;;;;;5073505;28;19908;-63
2022/06/02 04:21:31;;;;;;;;;;;20.40;47.80;;;;;;5073386;28;19914;-63
2022/06/02 04:24:18;;;;;;;;;;;20.40;47.80;;;;;;5073448;28;20323;-63
2022/06/02 04:26:47;;;;;;;;;;;20.40;47.80;;;;;;5072030;28;19916;-63
2022/06/02 04:29:31;;;;;;;;;;;20.40;47.80;;;;;;5073364;28;19908;-63
2022/06/02 04:32:15;;;;;;;;;;;20.40;47.80;;;;;;5073328;28;19916;-63
2022/06/02 04:35:10;;;;;;;;;;;20.40;47.80;;;;;;5073344;28;19973;-63
2022/06/02 04:37:37;;;;;;;;;;;20.40;47.80;;;;;;5055421;28;19921;-63
2022/06/02 04:40:10;;;;;;;;;;;20.40;47.70;;;;;;5073328;28;20368;-63
2022/06/02 04:42:41;;;;;;;;;;;20.40;47.80;;;;;;5088737;28;19915;-63
2022/06/02 04:45:09;;;;;;;;;;;20.40;47.80;;;;;;5089052;28;19962;-63
2022/06/02 04:47:53;;;;;;;;;;;20.40;47.80;;;;;;5088519;28;19919;-63
2022/06/02 04:50:34;;;;;;;;;;;20.40;47.80;;;;;;5073033;28;19908;-63
2022/06/02 04:52:59;;;;;;;;;;;20.40;47.80;;;;;;5088587;28;19909;-63
2022/06/02 04:55:37;;;;;;;;;;;20.30;47.80;;;;;;5073063;28;20304;-63
2022/06/02 04:58:15;;;;;;;;;;;20.30;47.80;;;;;;5088624;28;20372;-63
2022/06/02 05:00:58;;;;;;;;;;;20.30;47.70;;;;;;5073090;28;19912;-63
2022/06/02 05:03:39;;;;;;;;;;;20.30;47.70;;;;;;5072779;28;19954;-63
2022/06/02 05:06:06;;;;;;;;;;;20.30;47.70;;;;;;5073061;28;19908;-63
2022/06/02 05:08:31;;;;;;;;;;;20.30;47.80;;;;;;5088581;28;19947;-63
2022/06/02 05:11:07;;;;;;;;;;;20.40;47.90;;;;;;5072825;28;19912;-64
2022/06/02 05:13:53;;;;;;;;;;;20.30;47.80;;;;;;5072663;28;20337;-64
2022/06/02 05:16:41;;;;;;;;;;;20.30;47.80;;;;;;5061414;28;19971;-63
2022/06/02 05:19:10;;;;;;;;;;;20.30;47.80;;;;;;5069712;28;19908;-64
2022/06/02 05:21:41;;;;;;;;;;;20.30;47.70;;;;;;5072733;28;19908;-64
2022/06/02 05:24:07;;;;;;;;;;;20.30;47.70;;;;;;5072685;28;19915;-64
2022/06/02 05:26:32;;;;;;;;;;;20.30;47.80;;;;;;5072675;28;19916;-64
2022/06/02 05:29:16;;;;;;;;;;;20.30;47.80;;;;;;5072683;28;19909;-63
2022/06/02 05:31:51;;;;;;;;;;;20.30;47.80;;;;;;5072571;28;19908;-63
2022/06/02 05:34:23;;;;;;;;;;;20.30;47.80;;;;;;5072634;28;20276;-63
2022/06/02 05:37:10;;;;;;;;;;;20.30;47.80;;;;;;5088412;28;20320;-63
2022/06/02 05:39:45;;;;;;;;;;;20.30;47.80;;;;;;5071518;28;19997;-64
2022/06/02 05:42:13;;;;;;;;;;;20.30;47.80;;;;;;5072593;28;19959;-64
2022/06/02 05:44:43;;;;;;;;;;;20.30;47.70;;;;;;5088134;28;19909;-64
2022/06/02 05:47:17;;;;;;;;;;;20.30;47.70;;;;;;5088061;28;19944;-64
2022/06/02 05:49:53;;;;;;;;;;;20.30;47.70;;;;;;5074199;28;19958;-63
2022/06/02 05:52:26;;;;;;;;;;;20.30;47.60;;;;;;5076119;28;20372;-63
2022/06/02 05:55:09;;;;;;;;;;;20.30;47.60;;;;;;5074798;28;19908;-63
2022/06/02 05:57:35;;;;;;;;;;;20.30;47.70;;;;;;5076051;28;19962;-63
2022/06/02 06:00:00;;;;;;;;;;;20.30;47.60;;;;;;5076070;28;19912;-63
2022/06/02 06:02:33;;;;;;;;;;;20.30;48.20;;;;;;5075938;28;19909;-63
2022/06/02 06:05:04;;;;;;;;;;;20.30;47.60;;;;;;5075730;28;19908;-63
2022/06/02 06:07:48;;;;;;;;;;;20.30;47.60;;;;;;5075882;28;19912;-63
2022/06/02 06:10:25;;;;;;;;;;;20.30;47.60;;;;;;5074527;28;19909;-63
2022/06/02 06:12:56;;;;;;;;;;;20.30;47.60;;;;;;5091462;28;20308;-63
2022/06/02 06:15:40;;;;;;;;;;;20.30;47.50;;;;;;5075729;28;19996;-63
2022/06/02 06:18:25;;;;;;;;;;;20.40;47.60;;;;;;5075731;28;19960;-63
2022/06/02 06:21:02;;;;;;;;;;;20.30;47.50;;;;;;5075495;28;20003;-63
2022/06/02 06:23:46;;;;;;;;;;;20.30;47.60;;;;;;5091612;28;19912;-63
2022/06/02 06:26:14;;;;;;;;;;;20.30;47.60;;;;;;5075855;28;20271;-63
2022/06/02 06:28:43;;;;;;;;;;;20.30;47.70;;;;;;5075349;28;19912;-63
2022/06/02 06:31:26;;;;;;;;;;;20.30;47.70;;;;;;5091334;28;19995;-63
2022/06/02 06:34:02;;;;;;;;;;;20.30;47.70;;;;;;5091226;28;19908;-64
2022/06/02 06:36:38;;;;;;;;;;;20.30;47.70;;;;;;5075750;28;19955;-63
2022/06/02 06:39:16;;;;;;;;;;;20.30;47.70;;;;;;5090900;28;19916;-63
2022/06/02 06:41:46;;;;;;;;;;;20.30;47.70;;;;;;5091093;28;19908;-63
2022/06/02 06:44:16;;;;;;;;;;;20.30;47.70;;;;;;5091127;28;19916;-63
2022/06/02 06:47:11;;;;;;;;;;;20.30;47.70;;;;;;5074896;28;19912;-63
2022/06/02 06:49:43;;;;;;;;;;;20.30;47.70;;;;;;5070170;28;20014;-63
2022/06/02 06:52:23;;;;;;;;;;;20.30;47.70;;;;;;5090296;28;19909;-63
2022/06/02 06:54:54;;;;;;;;;;;20.20;47.70;;;;;;5090487;28;19962;-63
2022/06/02 06:57:22;;;;;;;;;;;20.20;47.80;;;;;;5075031;28;19913;-63
2022/06/02 06:59:51;;;;;;;;;;;20.20;47.80;;;;;;5074818;28;19908;-63
2022/06/02 07:02:25;;;;;;;;;;;20.20;47.80;;;;;;5074349;28;19959;-64
2022/06/02 07:04:57;;;;;;;;;;;20.30;47.90;;;;;;5090291;28;19909;-64
2022/06/02 07:07:41;;;;;;;;;;;20.20;47.80;;;;;;5074789;28;19919;-63
2022/06/02 07:10:08;;;;;;;;;;;20.20;47.80;;;;;;5074633;28;19915;-64
2022/06/02 07:12:53;;;;;;;;;;;20.20;47.70;;;;;;5074688;28;19908;-64
2022/06/02 07:15:21;;;;;;;;;;;20.20;47.80;;;;;;5089206;28;19908;-64
2022/06/02 07:17:52;;;;;;;;;;;20.20;47.80;;;;;;5074384;28;19917;-65
2022/06/02 07:20:30;;;;;;;;;;;20.20;47.80;;;;;;5090121;28;20364;-64
2022/06/02 07:23:12;;;;;;;;;;;20.20;47.90;;;;;;5090246;28;20326;-64
2022/06/02 07:25:53;;;;;;;;;;;20.10;47.80;;;;;;5074461;28;19961;-64
2022/06/02 07:28:19;;;;;;;;;;;20.20;47.90;;;;;;5073206;28;19916;-64
2022/06/02 07:30:44;;;;;;;;;;;20.10;47.90;;;;;;5074205;28;19916;-64
2022/06/02 07:33:28;;;;;;;;;;;20.10;48.00;;;;;;5073143;28;19912;-62
2022/06/02 07:36:06;;;;;;;;;;;20.10;47.90;;;;;;5074102;28;19909;-61
2022/06/02 07:38:38;;;;;;;;;;;20.10;47.90;;;;;;5074357;28;19909;-62
2022/06/02 07:41:11;;;;;;;;;;;20.10;47.90;;;;;;5073222;28;20360;-62
2022/06/02 07:43:55;;;;;;;;;;;20.20;48.00;;;;;;5072707;28;19908;-61
2022/06/02 07:46:20;;;;;;;;;;;20.10;47.90;;;;;;5073820;28;21803;-62
2022/06/02 07:49:00;;;;;;;;;;;20.10;47.90;;;;;;5073944;28;20368;-61
2022/06/02 07:51:37;;;;;;;;;;;20.20;47.90;;;;;;5072715;28;19909;-61
2022/06/02 07:54:03;;;;;;;;;;;20.20;47.90;;;;;;5072479;28;20291;-64
2022/06/02 07:56:31;;;;;;;;;;;20.20;47.90;;;;;;5073760;28;19908;-63
2022/06/02 07:59:04;;;;;;;;;;;20.10;48.00;;;;;;5073868;28;20319;-62
2022/06/02 08:01:46;;;;;;;;;;;20.10;48.00;;;;;;5079306;28;19987;-62
2022/06/02 08:04:12;;;;;;;;;;;20.20;48.00;;;;;;5072395;28;19909;-62
2022/06/02 08:06:57;;;;;;;;;;;20.20;48.00;;;;;;5072486;28;19912;-62
2022/06/02 08:09:28;;;;;;;;;;;20.20;48.00;;;;;;5073860;28;19909;-62
2022/06/02 08:11:56;;;;;;;;;;;20.20;47.90;;;;;;5073239;28;19915;-62
2022/06/02 08:14:22;;;;;;;;;;;20.20;47.90;;;;;;5072780;28;19950;-62
2022/06/02 08:17:06;;;;;;;;;;;20.20;47.90;;;;;;5073396;28;19939;-62
2022/06/02 08:19:57;;;;;;;;;;;20.20;47.90;;;;;;5073292;28;19995;-62
2022/06/02 08:22:24;;;;;;;;;;;20.20;47.90;;;;;;5072168;28;19909;-62
2022/06/02 08:24:54;;;;;;;;;;;20.20;48.00;;;;;;5072031;28;20388;-62
2022/06/02 08:27:23;;;;;;;;;;;20.20;48.10;;;;;;5073367;28;19920;-62
2022/06/02 08:29:55;;;;;;;;;;;20.10;48.00;;;;;;5073215;28;20007;-63
2022/06/02 08:32:25;;;;;;;;;;;20.10;48.10;;;;;;5073087;28;19913;-62
2022/06/02 08:35:04;;;;;;;;;;;20.10;48.00;;;;;;5073305;28;19944;-63
2022/06/02 08:37:29;;;;;;;;;;;20.10;48.10;;;;;;5078737;28;20317;-62
2022/06/02 08:40:15;;;;;;;;;;;20.10;48.10;;;;;;5073379;28;19946;-62
2022/06/02 08:42:46;;;;;;;;;;;20.10;48.20;;;;;;5072094;28;20356;-62
2022/06/02 08:45:18;;;;;;;;;;;20.00;48.20;;;;;;5071742;28;19908;-62
2022/06/02 08:48:03;;;;;;;;;;;20.10;48.30;;;;;;5071819;28;19912;-62
2022/06/02 08:50:29;;;;;;;;;;;20.10;48.20;;;;;;5073068;28;20003;-62
2022/06/02 08:53:03;;;;;;;;;;;20.10;48.20;;;;;;5073106;28;19978;-62
2022/06/02 08:55:40;;;;;;;;;;;20.10;48.20;;;;;;5071760;28;19940;-62
2022/06/02 08:58:18;;;;;;;;;;;20.10;48.10;;;;;;5072690;28;19909;-62
2022/06/02 09:01:02;;;;;;;;;;;20.20;48.10;;;;;;5071707;28;19908;-62
2022/06/02 09:03:46;;;;;;;;;;;20.20;48.00;;;;;;5072799;28;19927;-62
2022/06/02 09:06:18;;;;;;;;;;;20.20;48.00;;;;;;5072693;28;19909;-62
2022/06/02 09:09:01;;;;;;;;;;;20.30;48.00;;;;;;5073503;28;19908;-62
2022/06/02 09:11:34;;;;;;;;;;;20.30;48.00;;;;;;5072788;28;19912;-62
2022/06/02 09:13:59;;;;;;;;;;;20.30;47.90;;;;;;5071509;28;19916;-62
2022/06/02 09:16:34;;;;;;;;;;;20.30;47.90;;;;;;5072511;28;19917;-62
2022/06/02 09:19:00;;;;;;;;;;;20.30;47.90;;;;;;5072953;28;19909;-62
2022/06/02 09:21:28;;;;;;;;;;;20.30;47.90;;;;;;5072711;28;19915;-63
2022/06/02 09:24:00;;;;;;;;;;;20.30;47.90;;;;;;5073436;28;20018;-62
2022/06/02 09:26:48;;;;;;;;;;;20.30;47.90;;;;;;5076653;28;20002;-64
2022/06/02 09:29:21;;;;;;;;;;;20.30;47.90;;;;;;5039106;28;19909;-65
2022/06/02 09:32:15;;;;;;;;;;;20.30;47.90;;;;;;5076692;28;19908;-64
2022/06/02 09:34:41;;;;;;;;;;;20.30;47.80;;;;;;5004731;28;19945;-63
2022/06/02 09:37:07;;;;;;;;;;;20.30;47.80;;;;;;5076644;28;19904;-62
2022/06/02 09:39:35;;;;;;;;;;;20.30;47.80;;;;;;5076768;28;19908;-63
2022/06/02 09:42:19;;;;;;;;;;;20.30;47.90;;;;;;5075346;28;19913;-62
2022/06/02 09:44:47;;;;;;;;;;;20.40;47.90;;;;;;5076362;28;20362;-64
2022/06/02 09:47:16;;;;;;;;;;;20.30;47.90;;;;;;5076407;28;19912;-63
2022/06/02 09:49:48;;;;;;;;;;;20.30;47.90;;;;;;5076405;28;19913;-63
2022/06/02 09:52:14;;;;;;;;;;;20.30;48.00;;;;;;5074983;28;19909;-63
2022/06/02 09:54:44;;;;;;;;;;;20.30;48.00;;;;;;5075963;28;19999;-63
2022/06/02 10:00:15;;;;;;;;;;;20.40;48.00;;;;;;5082906;28;19915;-64
2022/06/02 10:02:43;;;;;;;;;;;20.30;47.90;;;;;;5074786;28;20040;-64
2022/06/02 10:05:08;;;;;;;;;;;20.30;47.90;;;;;;5074731;28;19954;-63
2022/06/02 10:07:36;;;;;;;;;;;20.40;48.00;;;;;;5075806;28;20302;-63
2022/06/02 10:10:17;;;;;;;;;;;20.30;48.10;;;;;;5055642;28;20375;-63
2022/06/02 10:12:54;;;;;;;;;;;20.30;48.00;;;;;;5054616;28;19909;-63
2022/06/02 10:15:20;;;;;;;;;;;20.30;48.00;;;;;;5055840;28;20288;-64
2022/06/02 10:17:57;;;;;;;;;;;20.30;48.00;;;;;;5055585;28;19917;-63
2022/06/02 10:20:41;;;;;;;;;;;20.30;48.00;;;;;;5055554;28;19996;-63
2022/06/02 10:23:25;;;;;;;;;;;20.30;48.00;;;;;;5055467;28;19909;-63
2022/06/02 10:26:01;;;;;;;;;;;20.30;48.00;;;;;;5055447;28;19919;-63
2022/06/02 10:28:45;;;;;;;;;;;20.30;48.10;;;;;;5054149;28;19921;-63
2022/06/02 10:31:18;;;;;;;;;;;20.30;48.20;;;;;;5055550;28;19913;-63
2022/06/02 10:33:44;;;;;;;;;;;20.30;48.20;;;;;;5054192;28;19909;-63
2022/06/02 10:36:16;;;;;;;;;;;20.30;48.10;;;;;;5054475;28;19909;-64
2022/06/02 10:38:56;;;;;;;;;;;20.30;48.00;;;;;;5064915;28;19915;-63
2022/06/02 10:41:21;;;;;;;;;;;20.40;48.20;;;;;;5073961;28;20007;-63
2022/06/02 10:43:53;;;;;;;;;;;20.30;48.10;;;;;;5074973;28;19952;-63
2022/06/02 10:46:28;;;;;;;;;;;20.30;48.00;;;;;;5075134;28;20384;-63
2022/06/02 10:49:13;;;;;;;;;;;20.40;48.10;;;;;;5074979;28;20038;-63
2022/06/02 10:51:38;;;;;;;;;;;20.30;48.20;;;;;;5074907;28;20024;-64
2022/06/02 10:54:22;;;;;;;;;;;20.40;48.30;;;;;;5075058;28;20329;-64
2022/06/02 10:57:02;;;;;;;;;;;20.30;48.20;;;;;;5074976;28;20360;-63
2022/06/02 10:59:36;;;;;;;;;;;20.30;48.30;;;;;;5074873;28;19995;-63
2022/06/02 11:02:21;;;;;;;;;;;20.30;48.30;;;;;;5073608;28;20382;-63
2022/06/02 11:04:46;;;;;;;;;;;20.30;48.40;;;;;;5074617;28;19912;-63
2022/06/02 11:07:15;;;;;;;;;;;20.30;48.30;;;;;;5074802;28;20264;-63
2022/06/02 11:09:49;;;;;;;;;;;20.30;48.20;;;;;;5074917;28;19995;-63
2022/06/02 11:12:33;;;;;;;;;;;20.30;48.10;;;;;;5074561;28;19912;-63
2022/06/02 11:15:06;;;;;;;;;;;20.30;48.20;;;;;;5074538;28;20368;-63
2022/06/02 11:17:54;;;;;;;;;;;20.40;48.30;;;;;;5073117;28;19944;-63
2022/06/02 11:20:38;;;;;;;;;;;20.40;48.20;;;;;;5073166;28;19909;-63
2022/06/02 11:23:23;;;;;;;;;;;20.30;48.30;;;;;;5074370;28;20385;-63
2022/06/02 11:25:48;;;;;;;;;;;20.40;48.30;;;;;;5074466;28;19915;-63
2022/06/02 11:28:37;;;;;;;;;;;20.40;48.20;;;;;;5074564;28;20015;-63
2022/06/02 11:31:21;;;;;;;;;;;20.40;48.20;;;;;;5073105;28;20398;-63
2022/06/02 11:33:52;;;;;;;;;;;20.40;48.80;;;;;;5074368;28;19909;-63
2022/06/02 11:36:37;;;;;;;;;;;20.40;48.20;;;;;;5074319;28;19999;-63
2022/06/02 11:39:02;;;;;;;;;;;20.30;48.40;;;;;;5074592;28;20016;-63
2022/06/02 11:41:45;;;;;;;;;;;20.30;48.60;;;;;;5074145;28;19948;-63
2022/06/02 11:44:33;;;;;;;;;;;20.30;48.50;;;;;;5072825;28;19970;-63
2022/06/02 11:47:13;;;;;;;;;;;20.30;48.50;;;;;;5072721;28;19913;-63
2022/06/02 11:49:48;;;;;;;;;;;20.30;48.40;;;;;;5073980;28;19908;-63
2022/06/02 11:52:31;;;;;;;;;;;20.40;48.40;;;;;;5073949;28;19909;-63
2022/06/02 11:55:08;;;;;;;;;;;20.40;48.40;;;;;;5073865;28;19915;-63
2022/06/02 11:57:37;;;;;;;;;;;20.40;48.40;;;;;;5072520;28;19915;-63
2022/06/02 12:00:13;;;;;;;;;;;20.30;48.40;;;;;;5073876;28;20376;-63
2022/06/02 12:02:42;;;;;;;;;;;20.40;48.40;;;;;;5072331;28;19909;-63
2022/06/02 12:05:23;;;;;;;;;;;20.40;48.30;;;;;;5073615;28;20012;-63
2022/06/02 12:08:13;;;;;;;;;;;20.40;48.30;;;;;;5073944;28;19913;-63
2022/06/02 12:10:58;;;;;;;;;;;20.40;48.30;;;;;;5073693;28;19962;-63
2022/06/02 12:13:29;;;;;;;;;;;20.40;48.30;;;;;;5073462;28;19979;-63
2022/06/02 12:16:16;;;;;;;;;;;20.40;48.50;;;;;;5073289;28;19919;-63
2022/06/02 12:18:53;;;;;;;;;;;20.30;48.60;;;;;;5072330;28;19908;-63
2022/06/02 12:21:34;;;;;;;;;;;20.20;48.80;;;;;;5073438;28;19995;-63
2022/06/02 12:23:59;;;;;;;;;;;20.20;49.00;;;;;;5055427;28;20291;-63
2022/06/02 12:26:42;;;;;;;;;;;20.20;49.00;;;;;;5073338;28;19909;-63
2022/06/02 12:29:14;;;;;;;;;;;20.20;49.00;;;;;;5072294;28;20017;-63
2022/06/02 12:31:49;;;;;;;;;;;20.20;49.00;;;;;;5073181;28;19908;-63
2022/06/02 12:34:23;;;;;;;;;;;20.20;49.00;;;;;;5073355;28;19948;-63
2022/06/02 12:37:07;;;;;;;;;;;20.20;49.20;;;;;;5073192;28;19951;-63
2022/06/02 12:39:44;;;;;;;;;;;20.20;49.20;;;;;;5073636;28;19915;-63
2022/06/02 12:42:16;;;;;;;;;;;20.20;49.00;;;;;;5072928;28;19916;-63
2022/06/02 12:45:10;;;;;;;;;;;20.20;49.00;;;;;;5073045;28;20106;-63
2022/06/02 12:47:36;;;;;;;;;;;20.20;49.00;;;;;;5001156;28;19914;-63
2022/06/02 12:50:20;;;;;;;;;;;20.30;49.00;;;;;;5073040;28;19911;-63
2022/06/02 12:52:51;;;;;;;;;;;20.30;49.00;;;;;;5072947;28;19908;-63
2022/06/02 12:55:36;;;;;;;;;;;20.30;49.00;;;;;;5071792;28;19987;-63
2022/06/02 12:58:16;;;;;;;;;;;20.30;49.00;;;;;;5071760;28;19920;-63
2022/06/02 13:00:55;;;;;;;;;;;20.30;49.20;;;;;;5072572;28;19915;-63
2022/06/02 13:03:33;;;;;;;;;;;20.20;49.30;;;;;;5071452;28;19908;-63
2022/06/02 13:06:01;;;;;;;;;;;20.20;49.50;;;;;;5072787;28;19931;-63
2022/06/02 13:08:45;;;;;;;;;;;20.10;49.50;;;;;;5072962;28;19919;-63
2022/06/02 13:11:19;;;;;;;;;;;20.20;49.40;;;;;;5072771;28;20016;-63
2022/06/02 13:14:02;;;;;;;;;;;20.20;49.30;;;;;;5072794;28;20364;-63
2022/06/02 13:16:37;;;;;;;;;;;20.20;49.30;;;;;;5071619;28;19967;-63
2022/06/02 13:19:03;;;;;;;;;;;20.20;49.20;;;;;;5072686;28;19915;-64
2022/06/02 13:21:35;;;;;;;;;;;20.30;50.00;;;;;;5072919;28;20414;-63
2022/06/02 13:24:13;;;;;;;;;;;20.30;49.30;;;;;;5072617;28;19916;-63
2022/06/02 13:26:45;;;;;;;;;;;20.20;49.30;;;;;;5071554;28;19916;-63
2022/06/02 13:29:29;;;;;;;;;;;20.20;49.40;;;;;;5072590;28;19908;-63
2022/06/02 13:32:02;;;;;;;;;;;20.20;49.40;;;;;;5072594;28;20029;-63
2022/06/02 13:34:46;;;;;;;;;;;20.20;49.30;;;;;;5071290;28;19909;-63
2022/06/02 13:37:30;;;;;;;;;;;20.30;49.30;;;;;;5072429;28;19909;-63
2022/06/02 13:40:14;;;;;;;;;;;20.30;49.40;;;;;;5071542;28;20301;-63
2022/06/02 13:42:45;;;;;;;;;;;20.20;49.40;;;;;;5072414;28;19924;-63
2022/06/02 13:45:11;;;;;;;;;;;20.30;49.50;;;;;;5072521;28;20367;-63
2022/06/02 13:47:39;;;;;;;;;;;20.30;49.50;;;;;;5072294;28;19951;-63
2022/06/02 13:50:07;;;;;;;;;;;20.30;49.60;;;;;;5072417;28;19908;-63
2022/06/02 13:52:33;;;;;;;;;;;20.30;49.60;;;;;;5072260;28;19909;-63
2022/06/02 13:58:21;;;;;;;;;;;20.30;49.60;;;;;;5079225;28;19931;-63
2022/06/02 14:01:06;;;;;;;;;;;20.40;49.60;;;;;;5072541;28;19909;-63
2022/06/02 14:03:50;;;;;;;;;;;20.40;49.40;;;;;;5072280;28;19990;-63
2022/06/02 14:06:20;;;;;;;;;;;20.40;49.40;;;;;;5070956;28;19909;-63
2022/06/02 14:08:51;;;;;;;;;;;20.40;49.30;;;;;;5071498;28;19912;-63
2022/06/02 14:11:16;;;;;;;;;;;20.40;49.30;;;;;;5073256;28;19915;-63
2022/06/02 14:13:45;;;;;;;;;;;20.40;49.50;;;;;;5076201;28;19908;-63
2022/06/02 14:16:17;;;;;;;;;;;20.40;49.50;;;;;;5075728;28;19912;-63
2022/06/02 14:18:46;;;;;;;;;;;20.40;49.60;;;;;;5074583;28;19912;-63
2022/06/02 14:21:30;;;;;;;;;;;20.30;49.50;;;;;;5074516;28;19908;-63
2022/06/02 14:23:56;;;;;;;;;;;20.40;49.50;;;;;;5075681;28;19974;-63
2022/06/02 14:26:21;;;;;;;;;;;20.40;49.30;;;;;;5075563;28;19952;-63
2022/06/02 14:28:51;;;;;;;;;;;20.40;49.40;;;;;;5075818;28;19954;-63
2022/06/02 14:31:17;;;;;;;;;;;20.40;49.50;;;;;;5075905;28;19909;-63
2022/06/02 14:33:45;;;;;;;;;;;20.40;49.50;;;;;;5075516;28;19908;-63
2022/06/02 14:36:24;;;;;;;;;;;20.40;49.40;;;;;;5075604;28;19935;-63
2022/06/02 14:39:07;;;;;;;;;;;20.40;50.10;;;;;;5074527;28;19913;-63
2022/06/02 14:41:51;;;;;;;;;;;20.40;49.40;;;;;;5075337;28;20261;-63
2022/06/02 14:44:28;;;;;;;;;;;20.40;49.50;;;;;;5075370;28;19931;-63
2022/06/02 14:46:53;;;;;;;;;;;20.50;49.70;;;;;;5074014;28;20301;-63
2022/06/02 14:49:28;;;;;;;;;;;20.40;49.60;;;;;;5075335;28;19985;-63
2022/06/02 14:52:09;;;;;;;;;;;20.50;49.60;;;;;;5075544;28;19909;-64
2022/06/02 14:54:37;;;;;;;;;;;20.50;49.60;;;;;;5057554;28;19908;-63
2022/06/02 14:57:09;;;;;;;;;;;20.50;49.50;;;;;;5075182;28;20354;-63
2022/06/02 14:59:50;;;;;;;;;;;20.50;49.50;;;;;;5073919;28;19909;-63
2022/06/02 15:02:34;;;;;;;;;;;20.60;49.40;;;;;;5074990;28;20003;-63
2022/06/02 15:05:08;;;;;;;;;;;20.60;49.40;;;;;;5074817;28;20291;-63
2022/06/02 15:07:51;;;;;;;;;;;20.60;49.30;;;;;;5074888;28;19912;-63
2022/06/02 15:10:16;;;;;;;;;;;20.60;49.20;;;;;;5055159;28;19909;-63